createdAt,value
2017-04-19T00:00:27.882Z,7.31
2017-04-19T00:01:11.275Z,7.1
2017-04-19T00:01:52.399Z,7.13
2017-04-19T00:02:32.727Z,7.16
2017-04-19T00:03:13.203Z,6.97
2017-04-19T00:03:53.691Z,7.03
2017-04-19T00:04:34.174Z,7.02
2017-04-19T00:05:14.628Z,7.07
2017-04-19T00:05:55.138Z,7.1
2017-04-19T00:06:35.662Z,7.06
2017-04-19T00:07:16.128Z,6.85
2017-04-19T00:07:56.621Z,6.89
2017-04-19T00:08:37.126Z,6.77
2017-04-19T00:09:17.620Z,6.76
2017-04-19T00:09:58.088Z,6.84
2017-04-19T00:10:38.624Z,6.87
2017-04-19T00:11:19.115Z,6.77
2017-04-19T00:11:59.644Z,6.85
2017-04-19T00:12:40.110Z,6.69
2017-04-19T00:13:20.579Z,6.74
2017-04-19T00:14:01.092Z,6.62
2017-04-19T00:14:41.807Z,6.79
2017-04-19T00:15:22.292Z,6.84
2017-04-19T00:16:02.760Z,6.69
2017-04-19T00:16:43.268Z,6.66
2017-04-19T00:17:23.770Z,6.54
2017-04-19T00:18:04.257Z,6.52
2017-04-19T00:18:44.761Z,6.49
2017-04-19T00:19:25.231Z,6.59
2017-04-19T00:20:05.726Z,6.7
2017-04-19T00:20:46.364Z,6.69
2017-04-19T00:21:26.865Z,6.8
2017-04-19T00:22:07.363Z,6.67
2017-04-19T00:22:47.859Z,6.85
2017-04-19T00:23:28.337Z,6.87
2017-04-19T00:24:08.825Z,6.85
2017-04-19T00:24:49.323Z,6.91
2017-04-19T00:25:29.787Z,6.79
2017-04-19T00:26:10.282Z,6.8
2017-04-19T00:26:50.790Z,6.89
2017-04-19T00:27:31.305Z,6.8
2017-04-19T00:28:11.753Z,6.84
2017-04-19T00:28:52.253Z,6.87
2017-04-19T00:29:32.765Z,6.87
2017-04-19T00:30:13.229Z,6.74
2017-04-19T00:30:53.754Z,6.84
2017-04-19T00:31:34.245Z,6.85
2017-04-19T00:32:14.762Z,7.05
2017-04-19T00:32:55.243Z,7.12
2017-04-19T00:33:35.699Z,6.85
2017-04-19T00:34:16.182Z,6.84
2017-04-19T00:34:56.771Z,6.74
2017-04-19T00:35:37.153Z,6.95
2017-04-19T00:36:17.683Z,7.06
2017-04-19T00:36:58.162Z,7.12
2017-04-19T00:37:38.667Z,7.12
2017-04-19T00:38:19.166Z,7.25
2017-04-19T00:38:59.626Z,7.17
2017-04-19T00:39:40.145Z,7.23
2017-04-19T00:40:20.670Z,7.31
2017-04-19T00:41:01.148Z,7.25
2017-04-19T00:41:41.635Z,7.27
2017-04-19T00:42:22.145Z,7.23
2017-04-19T00:43:02.622Z,7.17
2017-04-19T00:43:43.138Z,7.09
2017-04-19T00:44:23.641Z,7.2
2017-04-19T00:45:04.072Z,7.24
2017-04-19T00:45:44.562Z,7.15
2017-04-19T00:46:25.064Z,7.12
2017-04-19T00:47:05.523Z,7.13
2017-04-19T00:47:46.035Z,7.25
2017-04-19T00:48:26.504Z,7.28
2017-04-19T00:49:06.970Z,7.3
2017-04-19T00:49:47.481Z,7.35
2017-04-19T00:50:28.073Z,7.37
2017-04-19T00:51:08.509Z,7.16
2017-04-19T00:51:48.992Z,7.23
2017-04-19T00:52:29.524Z,7.28
2017-04-19T00:53:09.945Z,7.23
2017-04-19T00:53:50.449Z,7.27
2017-04-19T00:54:30.959Z,7.24
2017-04-19T00:55:11.490Z,7.15
2017-04-19T00:55:51.994Z,7.09
2017-04-19T00:56:32.543Z,7.13
2017-04-19T00:57:12.971Z,7.16
2017-04-19T00:57:53.433Z,7.13
2017-04-19T00:58:33.918Z,7.13
2017-04-19T00:59:14.402Z,7.28
2017-04-19T00:59:54.877Z,7.21
2017-04-19T01:00:35.351Z,7.21
2017-04-19T01:01:15.853Z,6.99
2017-04-19T01:01:56.374Z,7.07
2017-04-19T01:02:36.827Z,7.23
2017-04-19T01:03:17.309Z,7.2
2017-04-19T01:03:57.800Z,7.32
2017-04-19T01:04:38.274Z,7.32
2017-04-19T01:05:18.757Z,7.3
2017-04-19T01:05:59.266Z,7.32
2017-04-19T01:06:39.735Z,7.24
2017-04-19T01:07:20.250Z,7.21
2017-04-19T01:08:00.757Z,7.13
2017-04-19T01:08:41.202Z,7.12
2017-04-19T01:09:21.692Z,7.15
2017-04-19T01:10:02.650Z,7.3
2017-04-19T01:10:43.181Z,7.39
2017-04-19T01:11:23.606Z,7.4
2017-04-19T01:12:04.110Z,7.32
2017-04-19T01:12:44.567Z,7.31
2017-04-19T01:13:25.047Z,7.34
2017-04-19T01:14:05.563Z,7.34
2017-04-19T01:14:46.028Z,7.45
2017-04-19T01:15:26.525Z,7.42
2017-04-19T01:16:07.020Z,7.35
2017-04-19T01:16:47.511Z,7.4
2017-04-19T01:17:28.002Z,7.46
2017-04-19T01:18:08.521Z,7.43
2017-04-19T01:18:48.976Z,7.52
2017-04-19T01:19:29.497Z,7.45
2017-04-19T01:20:09.941Z,7.39
2017-04-19T01:20:50.425Z,7.42
2017-04-19T01:21:30.937Z,7.4
2017-04-19T01:22:11.435Z,7.43
2017-04-19T01:22:51.952Z,7.48
2017-04-19T01:23:32.397Z,7.48
2017-04-19T01:24:12.895Z,7.52
2017-04-19T01:24:53.382Z,7.5
2017-04-19T01:25:33.870Z,7.61
2017-04-19T01:26:14.352Z,7.69
2017-04-19T01:26:54.816Z,7.74
2017-04-19T01:27:35.300Z,7.69
2017-04-19T01:28:15.796Z,7.69
2017-04-19T01:28:56.316Z,7.8
2017-04-19T01:29:36.806Z,7.8
2017-04-19T01:30:17.285Z,7.75
2017-04-19T01:30:57.743Z,7.6
2017-04-19T01:31:38.226Z,7.53
2017-04-19T01:32:18.744Z,7.49
2017-04-19T01:32:59.210Z,7.42
2017-04-19T01:33:39.670Z,7.4
2017-04-19T01:34:20.177Z,7.4
2017-04-19T01:35:00.676Z,7.45
2017-04-19T01:35:41.164Z,7.27
2017-04-19T01:36:21.635Z,7.27
2017-04-19T01:37:02.129Z,7.31
2017-04-19T01:37:42.603Z,7.15
2017-04-19T01:38:23.131Z,7.3
2017-04-19T01:39:03.638Z,7.25
2017-04-19T01:39:44.153Z,7.2
2017-04-19T01:40:24.608Z,7.24
2017-04-19T01:41:05.086Z,7.24
2017-04-19T01:41:45.565Z,7.24
2017-04-19T01:42:26.058Z,7.39
2017-04-19T01:43:06.536Z,7.43
2017-04-19T01:43:47.035Z,7.42
2017-04-19T01:44:27.525Z,7.46
2017-04-19T01:45:08.024Z,7.35
2017-04-19T01:45:48.512Z,7.28
2017-04-19T01:46:29.018Z,7.17
2017-04-19T01:47:09.503Z,7.21
2017-04-19T01:47:49.954Z,7.31
2017-04-19T01:48:30.428Z,7.48
2017-04-19T01:49:10.949Z,7.43
2017-04-19T01:49:51.413Z,7.3
2017-04-19T01:50:31.915Z,7.21
2017-04-19T01:51:12.391Z,7.1
2017-04-19T01:51:52.835Z,7.2
2017-04-19T01:52:33.533Z,7.23
2017-04-19T01:53:14.068Z,7.31
2017-04-19T01:53:54.532Z,7.24
2017-04-19T01:54:35.024Z,7.28
2017-04-19T01:55:15.489Z,7.32
2017-04-19T01:55:55.957Z,7.4
2017-04-19T01:56:36.453Z,7.32
2017-04-19T01:57:16.970Z,7.32
2017-04-19T01:57:57.460Z,7.27
2017-04-19T01:58:37.912Z,7.28
2017-04-19T01:59:18.384Z,7.23
2017-04-19T01:59:58.874Z,7.25
2017-04-19T02:00:39.407Z,7.28
2017-04-19T02:01:19.890Z,7.31
2017-04-19T02:02:00.382Z,7.39
2017-04-19T02:02:40.894Z,7.16
2017-04-19T02:03:21.368Z,7.1
2017-04-19T02:04:01.859Z,7.16
2017-04-19T02:04:42.345Z,7.12
2017-04-19T02:05:22.862Z,7.09
2017-04-19T02:06:03.366Z,7.05
2017-04-19T02:06:43.797Z,7.03
2017-04-19T02:07:24.294Z,7.06
2017-04-19T02:08:04.779Z,6.99
2017-04-19T02:08:45.298Z,7.06
2017-04-19T02:09:25.754Z,7.07
2017-04-19T02:10:06.258Z,7.17
2017-04-19T02:10:46.756Z,7.13
2017-04-19T02:11:27.252Z,7.21
2017-04-19T02:12:07.714Z,7.2
2017-04-19T02:12:48.255Z,7.28
2017-04-19T02:13:28.705Z,7.45
2017-04-19T02:14:09.193Z,7.39
2017-04-19T02:14:49.727Z,7.42
2017-04-19T02:15:30.220Z,7.17
2017-04-19T02:16:10.695Z,7.12
2017-04-19T02:16:51.202Z,7.1
2017-04-19T02:17:31.699Z,7.09
2017-04-19T02:18:12.213Z,7.16
2017-04-19T02:18:52.690Z,7.17
2017-04-19T02:19:33.212Z,7.32
2017-04-19T02:20:13.670Z,7.28
2017-04-19T02:20:54.151Z,7.23
2017-04-19T02:21:34.663Z,7.28
2017-04-19T02:22:15.153Z,7.15
2017-04-19T02:22:55.679Z,7.17
2017-04-19T02:23:36.117Z,7.24
2017-04-19T02:24:16.599Z,7.21
2017-04-19T02:24:57.077Z,7.13
2017-04-19T02:25:37.585Z,7.21
2017-04-19T02:26:18.091Z,7.2
2017-04-19T02:26:58.561Z,7.24
2017-04-19T02:27:39.060Z,7.09
2017-04-19T02:28:19.554Z,7.05
2017-04-19T02:29:00.032Z,7.17
2017-04-19T02:29:40.540Z,6.97
2017-04-19T02:30:21.117Z,6.95
2017-04-19T02:31:01.623Z,6.84
2017-04-19T02:31:42.176Z,6.87
2017-04-19T02:32:22.641Z,6.8
2017-04-19T02:33:03.102Z,6.95
2017-04-19T02:33:43.621Z,6.87
2017-04-19T02:34:24.106Z,7.03
2017-04-19T02:35:04.588Z,6.97
2017-04-19T02:35:45.049Z,6.99
2017-04-19T02:36:25.517Z,6.95
2017-04-19T02:37:06.042Z,6.99
2017-04-19T02:37:46.565Z,6.91
2017-04-19T02:38:27.066Z,6.84
2017-04-19T02:39:07.555Z,6.77
2017-04-19T02:39:48.070Z,6.8
2017-04-19T02:40:28.592Z,6.79
2017-04-19T02:41:09.043Z,6.64
2017-04-19T02:41:49.587Z,6.69
2017-04-19T02:42:29.984Z,6.84
2017-04-19T02:43:10.511Z,6.77
2017-04-19T02:43:50.970Z,6.8
2017-04-19T02:44:31.450Z,6.79
2017-04-19T02:45:11.994Z,6.71
2017-04-19T02:45:52.432Z,6.66
2017-04-19T02:46:32.937Z,6.79
2017-04-19T02:47:13.452Z,6.87
2017-04-19T02:47:53.946Z,6.84
2017-04-19T02:48:34.425Z,6.76
2017-04-19T02:49:14.943Z,6.8
2017-04-19T02:49:55.404Z,6.71
2017-04-19T02:50:35.900Z,6.67
2017-04-19T02:51:16.414Z,6.73
2017-04-19T02:51:56.866Z,6.85
2017-04-19T02:52:37.402Z,6.91
2017-04-19T02:53:17.830Z,6.98
2017-04-19T02:53:58.341Z,6.81
2017-04-19T02:54:38.833Z,6.84
2017-04-19T02:55:19.321Z,6.81
2017-04-19T02:55:59.818Z,6.97
2017-04-19T02:56:40.311Z,6.8
2017-04-19T02:57:20.821Z,6.84
2017-04-19T02:58:01.331Z,6.92
2017-04-19T02:58:41.839Z,6.81
2017-04-19T02:59:22.294Z,6.85
2017-04-19T03:00:02.757Z,6.99
2017-04-19T03:00:43.276Z,6.95
2017-04-19T03:01:23.784Z,6.97
2017-04-19T03:02:04.260Z,6.98
2017-04-19T03:02:44.743Z,6.92
2017-04-19T03:03:25.229Z,6.88
2017-04-19T03:04:05.684Z,6.74
2017-04-19T03:04:46.195Z,6.84
2017-04-19T03:05:26.685Z,6.88
2017-04-19T03:06:07.174Z,6.98
2017-04-19T03:06:47.637Z,6.87
2017-04-19T03:07:28.119Z,7.02
2017-04-19T03:08:08.607Z,6.85
2017-04-19T03:08:49.124Z,6.79
2017-04-19T03:09:29.590Z,6.77
2017-04-19T03:10:10.110Z,6.84
2017-04-19T03:10:50.581Z,6.58
2017-04-19T03:11:31.094Z,6.64
2017-04-19T03:12:11.552Z,6.61
2017-04-19T03:12:52.065Z,6.7
2017-04-19T03:13:32.602Z,6.55
2017-04-19T03:14:13.072Z,6.49
2017-04-19T03:14:53.579Z,6.58
2017-04-19T03:15:34.136Z,6.49
2017-04-19T03:16:14.609Z,6.54
2017-04-19T03:16:55.098Z,6.74
2017-04-19T03:17:35.583Z,6.74
2017-04-19T03:18:16.068Z,6.79
2017-04-19T03:18:56.569Z,6.59
2017-04-19T03:19:37.051Z,6.58
2017-04-19T03:20:17.915Z,6.69
2017-04-19T03:20:58.409Z,6.76
2017-04-19T03:21:38.949Z,6.62
2017-04-19T03:22:19.411Z,6.64
2017-04-19T03:22:59.876Z,6.61
2017-04-19T03:23:40.381Z,6.59
2017-04-19T03:24:20.868Z,6.59
2017-04-19T03:25:01.365Z,6.62
2017-04-19T03:25:41.847Z,6.43
2017-04-19T03:26:22.351Z,6.44
2017-04-19T03:27:02.841Z,6.43
2017-04-19T03:27:43.317Z,6.31
2017-04-19T03:28:23.779Z,6.43
2017-04-19T03:29:04.279Z,6.27
2017-04-19T03:29:45.180Z,6.22
2017-04-19T03:30:25.904Z,6.4
2017-04-19T03:31:07.950Z,6.4
2017-04-19T03:31:50.445Z,6.46
2017-04-19T03:33:48.257Z,6.61
2017-04-19T03:34:28.756Z,6.64
2017-04-19T03:35:09.248Z,6.61
2017-04-19T03:35:49.757Z,6.54
2017-04-19T03:36:30.332Z,6.36
2017-04-19T03:37:10.807Z,6.43
2017-04-19T03:37:51.364Z,6.56
2017-04-19T03:38:32.202Z,6.41
2017-04-19T03:39:12.680Z,6.4
2017-04-19T03:39:53.179Z,6.44
2017-04-19T03:40:33.876Z,6.48
2017-04-19T03:41:14.534Z,6.69
2017-04-19T03:41:55.106Z,6.56
2017-04-19T03:42:35.784Z,6.69
2017-04-19T03:43:16.160Z,6.76
2017-04-19T03:43:56.628Z,6.7
2017-04-19T03:44:37.679Z,6.66
2017-04-19T03:45:18.082Z,6.74
2017-04-19T03:45:58.547Z,6.56
2017-04-19T03:46:38.992Z,6.59
2017-04-19T03:47:19.515Z,6.51
2017-04-19T03:47:59.991Z,6.37
2017-04-19T03:48:40.453Z,6.4
2017-04-19T03:49:20.971Z,6.48
2017-04-19T03:50:01.415Z,6.33
2017-04-19T03:50:41.925Z,6.38
2017-04-19T03:51:22.435Z,6.27
2017-04-19T03:52:02.920Z,6.37
2017-04-19T03:52:43.427Z,6.37
2017-04-19T03:53:23.906Z,6.4
2017-04-19T03:54:04.353Z,6.41
2017-04-19T03:54:44.825Z,6.37
2017-04-19T03:55:25.330Z,6.33
2017-04-19T03:56:05.785Z,6.34
2017-04-19T03:56:46.309Z,6.33
2017-04-19T03:57:26.758Z,6.3
2017-04-19T03:58:07.245Z,6.4
2017-04-19T03:58:47.715Z,6.4
2017-04-19T03:59:28.244Z,6.55
2017-04-19T04:00:08.737Z,6.51
2017-04-19T04:00:49.185Z,6.59
2017-04-19T04:01:29.635Z,6.59
2017-04-19T04:02:10.145Z,6.52
2017-04-19T04:02:50.665Z,6.38
2017-04-19T04:03:31.103Z,6.56
2017-04-19T04:04:11.624Z,6.41
2017-04-19T04:04:52.075Z,6.33
2017-04-19T04:05:32.616Z,6.33
2017-04-19T04:06:13.065Z,6.33
2017-04-19T04:06:53.543Z,6.38
2017-04-19T04:07:34.478Z,6.46
2017-04-19T04:08:14.954Z,6.33
2017-04-19T04:08:55.540Z,6.44
2017-04-19T04:09:35.913Z,6.46
2017-04-19T04:10:16.442Z,6.49
2017-04-19T04:10:56.912Z,6.38
2017-04-19T04:11:37.429Z,6.34
2017-04-19T04:12:17.988Z,6.43
2017-04-19T04:12:58.429Z,6.4
2017-04-19T04:13:39.139Z,6.34
2017-04-19T04:14:19.518Z,6.28
2017-04-19T04:15:00.754Z,6.17
2017-04-19T04:15:41.237Z,6.15
2017-04-19T04:16:21.719Z,6.12
2017-04-19T04:17:02.275Z,6.12
2017-04-19T04:17:42.874Z,6.11
2017-04-19T04:18:23.267Z,6.21
2017-04-19T04:19:04.068Z,6.25
2017-04-19T04:19:44.564Z,6.28
2017-04-19T04:20:24.903Z,6.28
2017-04-19T04:21:05.429Z,6.28
2017-04-19T04:21:45.911Z,6.3
2017-04-19T04:22:26.585Z,6.33
2017-04-19T04:23:07.475Z,6.44
2017-04-19T04:23:47.774Z,6.54
2017-04-19T04:24:28.392Z,6.54
2017-04-19T04:25:08.909Z,6.27
2017-04-19T04:25:49.413Z,6.34
2017-04-19T04:26:30.596Z,6.36
2017-04-19T04:27:10.954Z,6.48
2017-04-19T04:27:51.418Z,6.43
2017-04-19T04:28:31.942Z,6.52
2017-04-19T04:29:12.401Z,6.48
2017-04-19T04:29:52.915Z,6.4
2017-04-19T04:30:33.392Z,6.28
2017-04-19T04:31:13.911Z,6.43
2017-04-19T04:31:54.457Z,6.31
2017-04-19T04:32:34.947Z,6.31
2017-04-19T04:33:15.426Z,6.31
2017-04-19T04:33:55.894Z,6.21
2017-04-19T04:34:36.424Z,6.31
2017-04-19T04:35:17.119Z,6.41
2017-04-19T04:35:57.640Z,6.48
2017-04-19T04:36:38.121Z,6.46
2017-04-19T04:37:18.614Z,6.41
2017-04-19T04:37:59.069Z,6.54
2017-04-19T04:38:39.606Z,6.54
2017-04-19T04:39:20.072Z,6.58
2017-04-19T04:40:00.520Z,6.74
2017-04-19T04:40:41.043Z,6.7
2017-04-19T04:41:21.530Z,6.67
2017-04-19T04:42:02.020Z,6.76
2017-04-19T04:42:42.494Z,6.79
2017-04-19T04:43:22.993Z,6.8
2017-04-19T04:44:03.480Z,6.79
2017-04-19T04:44:43.958Z,6.73
2017-04-19T04:45:24.429Z,6.77
2017-04-19T04:46:04.955Z,6.59
2017-04-19T04:46:45.439Z,6.62
2017-04-19T04:47:25.897Z,6.59
2017-04-19T04:48:06.349Z,6.43
2017-04-19T04:48:46.819Z,6.4
2017-04-19T04:49:27.323Z,6.52
2017-04-19T04:50:07.845Z,6.61
2017-04-19T04:50:48.306Z,6.55
2017-04-19T04:51:28.813Z,6.4
2017-04-19T04:52:09.283Z,6.59
2017-04-19T04:52:49.783Z,6.62
2017-04-19T04:53:30.500Z,6.46
2017-04-19T04:54:10.955Z,6.37
2017-04-19T04:54:51.442Z,6.46
2017-04-19T04:55:31.923Z,6.58
2017-04-19T04:56:12.401Z,6.59
2017-04-19T04:56:52.957Z,6.56
2017-04-19T04:57:33.356Z,6.51
2017-04-19T04:58:13.854Z,6.58
2017-04-19T04:58:54.326Z,6.51
2017-04-19T04:59:34.840Z,6.51
2017-04-19T05:00:15.330Z,6.41
2017-04-19T05:00:55.811Z,6.38
2017-04-19T05:01:36.404Z,6.3
2017-04-19T05:02:16.816Z,6.4
2017-04-19T05:02:57.291Z,6.4
2017-04-19T05:03:37.818Z,6.21
2017-04-19T05:04:18.277Z,6.06
2017-04-19T05:04:58.757Z,5.97
2017-04-19T05:05:39.265Z,5.96
2017-04-19T05:06:19.710Z,5.72
2017-04-19T05:07:00.277Z,5.67
2017-04-19T05:07:40.759Z,5.82
2017-04-19T05:08:21.379Z,5.96
2017-04-19T05:09:01.900Z,6.09
2017-04-19T05:09:42.431Z,6.12
2017-04-19T05:10:22.893Z,6.08
2017-04-19T05:11:03.395Z,5.97
2017-04-19T05:11:43.878Z,6.08
2017-04-19T05:12:24.384Z,6.09
2017-04-19T05:13:04.896Z,5.99
2017-04-19T05:13:45.376Z,5.97
2017-04-19T05:14:25.878Z,6.17
2017-04-19T05:15:06.429Z,6.01
2017-04-19T05:15:46.875Z,5.94
2017-04-19T05:16:27.364Z,5.99
2017-04-19T05:17:07.776Z,6.12
2017-04-19T05:17:48.256Z,5.99
2017-04-19T05:18:28.739Z,5.9
2017-04-19T05:19:09.248Z,5.85
2017-04-19T05:19:49.678Z,5.94
2017-04-19T05:20:30.180Z,5.96
2017-04-19T05:21:10.654Z,5.82
2017-04-19T05:21:51.143Z,5.94
2017-04-19T05:22:31.652Z,6.11
2017-04-19T05:23:12.077Z,6.21
2017-04-19T05:23:52.565Z,6.36
2017-04-19T05:24:33.095Z,6.48
2017-04-19T05:25:13.582Z,6.58
2017-04-19T05:25:54.068Z,6.67
2017-04-19T05:26:34.561Z,6.52
2017-04-19T05:27:15.048Z,6.59
2017-04-19T05:27:55.562Z,6.64
2017-04-19T05:28:36.056Z,6.4
2017-04-19T05:29:16.602Z,6.51
2017-04-19T05:29:57.104Z,6.67
2017-04-19T05:30:37.715Z,6.64
2017-04-19T05:31:18.153Z,6.73
2017-04-19T05:31:58.678Z,6.73
2017-04-19T05:32:39.175Z,6.64
2017-04-19T05:33:19.606Z,6.64
2017-04-19T05:34:00.192Z,6.52
2017-04-19T05:34:40.638Z,6.43
2017-04-19T05:35:21.155Z,6.31
2017-04-19T05:36:01.750Z,6.43
2017-04-19T05:36:42.211Z,6.44
2017-04-19T05:37:22.739Z,6.7
2017-04-19T05:38:03.200Z,6.8
2017-04-19T05:38:43.766Z,6.99
2017-04-19T05:39:24.187Z,7.02
2017-04-19T05:40:04.745Z,7.02
2017-04-19T05:40:45.820Z,7.55
2017-04-19T05:41:26.210Z,7.49
2017-04-19T05:42:07.052Z,7.77
2017-04-19T05:42:47.133Z,7.64
2017-04-19T05:43:27.705Z,7.3
2017-04-19T05:44:08.216Z,7.28
2017-04-19T05:44:48.751Z,7.31
2017-04-19T05:45:29.236Z,7.28
2017-04-19T05:46:09.780Z,7.16
2017-04-19T05:46:51.946Z,6.99
2017-04-19T05:47:32.435Z,7.03
2017-04-19T05:48:12.943Z,6.87
2017-04-19T05:48:53.412Z,6.69
2017-04-19T05:49:33.862Z,6.8
2017-04-19T05:50:14.352Z,6.81
2017-04-19T05:50:54.847Z,7.03
2017-04-19T05:51:35.532Z,7.17
2017-04-19T05:52:15.873Z,7.34
2017-04-19T05:52:56.416Z,7.27
2017-04-19T05:53:37.101Z,7.42
2017-04-19T05:54:17.445Z,7.42
2017-04-19T05:54:57.955Z,7.27
2017-04-19T05:55:38.532Z,7.3
2017-04-19T05:56:18.878Z,7.43
2017-04-19T05:56:59.391Z,7.35
2017-04-19T05:57:39.840Z,7.25
2017-04-19T05:58:20.403Z,7.17
2017-04-19T05:59:00.809Z,7.1
2017-04-19T05:59:41.312Z,6.99
2017-04-19T06:00:21.861Z,7.1
2017-04-19T06:01:02.300Z,6.92
2017-04-19T06:01:42.815Z,7.02
2017-04-19T06:02:23.279Z,6.88
2017-04-19T06:03:03.786Z,7.05
2017-04-19T06:03:44.775Z,6.95
2017-04-19T06:04:25.202Z,7.07
2017-04-19T06:05:05.729Z,6.99
2017-04-19T06:05:46.813Z,6.98
2017-04-19T06:06:27.664Z,7.09
2017-04-19T06:07:08.125Z,7.13
2017-04-19T06:07:48.672Z,7.27
2017-04-19T06:08:29.717Z,7.24
2017-04-19T06:09:10.232Z,7.28
2017-04-19T06:09:50.833Z,7.31
2017-04-19T06:10:31.306Z,7.37
2017-04-19T06:11:11.851Z,7.15
2017-04-19T06:11:52.860Z,7.1
2017-04-19T06:12:33.361Z,7.05
2017-04-19T06:13:14.007Z,7.21
2017-04-19T06:13:54.597Z,7.2
2017-04-19T06:14:35.038Z,7.24
2017-04-19T06:15:15.573Z,7.07
2017-04-19T06:15:57.145Z,7.48
2017-04-19T06:16:37.619Z,8.29
2017-04-19T06:17:18.072Z,8.44
2017-04-19T06:17:58.630Z,8.83
2017-04-19T06:18:39.077Z,8.4
2017-04-19T06:19:19.569Z,7.98
2017-04-19T06:20:00.076Z,7.75
2017-04-19T06:20:40.536Z,8.2
2017-04-19T06:21:21.609Z,8.74
2017-04-19T06:22:02.144Z,9.17
2017-04-19T06:22:42.660Z,9.13
2017-04-19T06:23:23.145Z,8.99
2017-04-19T06:24:03.615Z,8.61
2017-04-19T06:24:44.116Z,8.34
2017-04-19T06:25:25.103Z,8.12
2017-04-19T06:26:05.638Z,8.18
2017-04-19T06:26:46.113Z,8.18
2017-04-19T06:27:26.627Z,8.1
2017-04-19T06:28:07.107Z,8.01
2017-04-19T06:28:47.710Z,8
2017-04-19T06:29:28.130Z,8.28
2017-04-19T06:30:08.618Z,9.28
2017-04-19T06:30:49.128Z,9.76
2017-04-19T06:31:29.849Z,9.36
2017-04-19T06:32:10.284Z,8.77
2017-04-19T06:32:50.824Z,8.34
2017-04-19T06:33:31.352Z,8.65
2017-04-19T06:34:11.910Z,8.43
2017-04-19T06:34:52.395Z,7.86
2017-04-19T06:35:32.869Z,7.97
2017-04-19T06:36:14.121Z,8.25
2017-04-19T06:36:54.967Z,8.38
2017-04-19T06:37:36.017Z,8.37
2017-04-19T06:39:13.883Z,8.76
2017-04-19T06:39:54.408Z,9.04
2017-04-19T06:40:34.858Z,9.1
2017-04-19T06:41:15.369Z,9.36
2017-04-19T06:41:55.942Z,9.29
2017-04-19T06:42:36.456Z,9.23
2017-04-19T06:43:16.915Z,9.05
2017-04-19T06:43:57.465Z,9.13
2017-04-19T06:44:37.919Z,9.1
2017-04-19T06:45:18.410Z,9.13
2017-04-19T06:45:58.830Z,8.99
2017-04-19T06:46:39.407Z,8.98
2017-04-19T06:47:19.858Z,8.7
2017-04-19T06:48:00.590Z,8.68
2017-04-19T06:48:41.590Z,8.73
2017-04-19T06:49:22.134Z,8.86
2017-04-19T06:50:03.316Z,8.99
2017-04-19T06:50:44.058Z,8.98
2017-04-19T06:51:24.528Z,8.79
2017-04-19T06:52:04.993Z,8.77
2017-04-19T06:52:45.506Z,9.05
2017-04-19T06:53:26.022Z,9.14
2017-04-19T06:54:06.627Z,8.94
2017-04-19T06:54:47.123Z,8.71
2017-04-19T06:55:27.608Z,8.29
2017-04-19T06:56:08.050Z,8.23
2017-04-19T06:56:48.962Z,8.34
2017-04-19T06:57:29.874Z,8.76
2017-04-19T06:58:10.241Z,8.83
2017-04-19T06:58:50.734Z,9.04
2017-04-19T06:59:31.236Z,9.33
2017-04-19T07:00:12.746Z,9.35
2017-04-19T07:00:53.213Z,9.68
2017-04-19T07:01:34.106Z,9.83
2017-04-19T07:02:14.620Z,10.02
2017-04-19T07:02:55.126Z,10.25
2017-04-19T07:03:35.546Z,10.59
2017-04-19T07:04:16.252Z,10.79
2017-04-19T07:04:56.709Z,10.63
2017-04-19T07:05:37.438Z,10.14
2017-04-19T07:06:17.964Z,10.14
2017-04-19T07:06:59.179Z,9.86
2017-04-19T07:07:39.739Z,9.71
2017-04-19T07:08:20.393Z,9.58
2017-04-19T07:09:00.767Z,9.57
2017-04-19T07:09:42.168Z,9.81
2017-04-19T07:10:22.689Z,9.39
2017-04-19T07:11:03.616Z,9.15
2017-04-19T07:11:44.254Z,8.91
2017-04-19T07:12:24.820Z,8.92
2017-04-19T07:13:05.496Z,8.66
2017-04-19T07:13:46.041Z,8.45
2017-04-19T07:14:26.510Z,8.41
2017-04-19T07:15:07.646Z,8.29
2017-04-19T07:15:48.486Z,8.26
2017-04-19T07:16:29.137Z,8.29
2017-04-19T07:17:09.774Z,8.38
2017-04-19T07:17:50.198Z,8.5
2017-04-19T07:18:30.657Z,9.23
2017-04-19T07:19:11.161Z,9.14
2017-04-19T07:19:51.857Z,8.87
2017-04-19T07:20:32.388Z,8.29
2017-04-19T07:21:12.852Z,8.18
2017-04-19T07:21:53.526Z,8.16
2017-04-19T07:22:33.971Z,8.01
2017-04-19T07:23:14.637Z,7.87
2017-04-19T07:23:55.095Z,8.66
2017-04-19T07:24:35.640Z,8.47
2017-04-19T07:25:16.167Z,8.89
2017-04-19T07:25:56.765Z,9.28
2017-04-19T07:26:37.175Z,9.26
2017-04-19T07:27:17.739Z,8.84
2017-04-19T07:27:58.310Z,8.95
2017-04-19T07:28:39.073Z,9.01
2017-04-19T07:29:19.653Z,9.05
2017-04-19T07:30:00.293Z,8.74
2017-04-19T07:30:41.005Z,8.45
2017-04-19T07:31:21.649Z,8.44
2017-04-19T07:32:02.029Z,8.15
2017-04-19T07:32:42.512Z,8
2017-04-19T07:33:23.032Z,7.89
2017-04-19T07:34:03.483Z,8.07
2017-04-19T07:34:44.076Z,8.12
2017-04-19T07:35:24.468Z,8.22
2017-04-19T07:36:05.295Z,8.07
2017-04-19T07:36:46.041Z,8.08
2017-04-19T07:37:26.603Z,8.1
2017-04-19T07:38:07.052Z,8.08
2017-04-19T07:38:47.646Z,8.2
2017-04-19T07:39:28.180Z,8.22
2017-04-19T07:40:09.019Z,8.28
2017-04-19T07:40:49.586Z,8.05
2017-04-19T07:41:30.404Z,8.19
2017-04-19T07:42:10.926Z,8.08
2017-04-19T07:42:51.687Z,8
2017-04-19T07:43:32.271Z,8.07
2017-04-19T07:44:13.388Z,8.16
2017-04-19T07:44:53.798Z,8.1
2017-04-19T07:45:34.334Z,8.26
2017-04-19T07:46:14.853Z,8.18
2017-04-19T07:46:55.401Z,8.15
2017-04-19T07:47:35.948Z,8.18
2017-04-19T07:48:16.436Z,8.12
2017-04-19T07:48:57.152Z,7.69
2017-04-19T07:49:37.673Z,7.89
2017-04-19T07:50:18.535Z,8.02
2017-04-19T07:50:59.362Z,8.08
2017-04-19T07:51:40.868Z,8.43
2017-04-19T07:52:21.326Z,8.58
2017-04-19T07:53:02.250Z,8.74
2017-04-19T07:53:43.915Z,8.71
2017-04-19T07:54:24.363Z,8.86
2017-04-19T07:55:04.834Z,8.92
2017-04-19T07:55:45.340Z,9.53
2017-04-19T07:56:25.853Z,9.38
2017-04-19T07:57:06.481Z,9.61
2017-04-19T07:57:46.921Z,9.36
2017-04-19T07:58:27.546Z,9.74
2017-04-19T07:59:08.045Z,9.96
2017-04-19T07:59:48.572Z,9.65
2017-04-19T08:00:29.057Z,9.58
2017-04-19T08:01:09.840Z,9.68
2017-04-19T08:01:51.186Z,9.28
2017-04-19T08:02:32.107Z,9.14
2017-04-19T08:03:12.583Z,9.13
2017-04-19T08:03:53.299Z,9.28
2017-04-19T08:04:34.013Z,9.78
2017-04-19T08:05:14.589Z,10.27
2017-04-19T08:05:55.051Z,10.08
2017-04-19T08:06:35.570Z,10.53
2017-04-19T08:07:16.130Z,10.59
2017-04-19T08:07:56.694Z,10.14
2017-04-19T08:08:37.197Z,10.23
2017-04-19T08:09:17.762Z,10.07
2017-04-19T08:09:58.316Z,9.79
2017-04-19T08:10:39.097Z,9.83
2017-04-19T08:11:19.897Z,9.72
2017-04-19T08:12:00.228Z,9.75
2017-04-19T08:12:40.702Z,9.87
2017-04-19T08:13:21.389Z,9.71
2017-04-19T08:14:01.924Z,9.6
2017-04-19T08:14:42.454Z,9.97
2017-04-19T08:15:23.540Z,10.18
2017-04-19T08:16:06.453Z,9.81
2017-04-19T08:16:47.434Z,9.66
2017-04-19T08:17:28.141Z,9.57
2017-04-19T08:18:09.116Z,9.86
2017-04-19T08:18:50.814Z,9.75
2017-04-19T08:19:31.676Z,9.79
2017-04-19T08:20:13.494Z,10.12
2017-04-19T08:20:55.061Z,10.51
2017-04-19T08:22:46.392Z,9.83
2017-04-19T08:23:26.713Z,9.74
2017-04-19T08:24:07.266Z,9.51
2017-04-19T08:24:49.041Z,9.2
2017-04-19T08:25:29.665Z,9.2
2017-04-19T08:26:10.613Z,9.14
2017-04-19T08:26:51.156Z,9.4
2017-04-19T08:27:31.601Z,9.56
2017-04-19T08:28:12.019Z,9.53
2017-04-19T08:28:52.810Z,9.6
2017-04-19T08:29:34.306Z,9.84
2017-04-19T08:30:15.177Z,9.84
2017-04-19T08:30:55.743Z,9.99
2017-04-19T08:31:37.153Z,10.01
2017-04-19T08:32:17.676Z,10.14
2017-04-19T08:32:58.193Z,10.08
2017-04-19T08:33:40.446Z,10.01
2017-04-19T08:34:20.497Z,9.68
2017-04-19T08:35:01.228Z,9.65
2017-04-19T08:35:41.593Z,9.53
2017-04-19T08:36:22.081Z,9.68
2017-04-19T08:37:02.641Z,9.68
2017-04-19T08:37:43.785Z,9.83
2017-04-19T08:38:24.317Z,9.91
2017-04-19T08:39:06.250Z,9.9
2017-04-19T08:39:46.781Z,9.72
2017-04-19T08:40:27.298Z,9.58
2017-04-19T08:41:07.801Z,8.95
2017-04-19T08:41:48.284Z,8.94
2017-04-19T08:42:28.784Z,9.26
2017-04-19T08:43:09.292Z,9.43
2017-04-19T08:43:50.282Z,9.04
2017-04-19T08:44:30.921Z,9.5
2017-04-19T08:45:11.523Z,9.4
2017-04-19T08:45:51.990Z,9.29
2017-04-19T08:46:32.659Z,9.21
2017-04-19T08:47:13.153Z,9.11
2017-04-19T08:47:53.953Z,9.36
2017-04-19T08:48:34.526Z,9.38
2017-04-19T08:49:15.144Z,9.4
2017-04-19T08:49:56.130Z,9.21
2017-04-19T08:50:37.667Z,9.38
2017-04-19T08:51:18.179Z,9.6
2017-04-19T08:51:58.807Z,9.26
2017-04-19T08:52:39.955Z,9.29
2017-04-19T08:53:24.183Z,9.14
2017-04-19T08:54:03.519Z,9.26
2017-04-19T08:54:44.033Z,9.4
2017-04-19T08:55:25.101Z,9.17
2017-04-19T08:56:06.209Z,8.73
2017-04-19T08:56:46.775Z,8.71
2017-04-19T08:57:27.463Z,8.65
2017-04-19T08:58:09.342Z,8.79
2017-04-19T08:58:51.122Z,9.02
2017-04-19T08:59:31.674Z,9.36
2017-04-19T09:00:12.119Z,9.39
2017-04-19T09:00:53.001Z,9.35
2017-04-19T09:01:33.566Z,8.95
2017-04-19T09:02:15.076Z,9.11
2017-04-19T09:02:55.644Z,9.39
2017-04-19T09:03:36.207Z,9.58
2017-04-19T09:04:17.138Z,9.64
2017-04-19T09:04:57.625Z,9.6
2017-04-19T09:05:38.089Z,9.36